メインページ
METAR-TAF:

METAR-TAF

空港 :

東京ヘリポート, 日本

緯度: 35-38N, 経度: 139-51E, 海抜: 5m

現時点の気象観測

当レポートは30分前の23:30(UTC)に作成
北東の風 4kt、北/北西から南東の間で変化する
気温 3°C
湿度 41%
気圧 1022 hPa
視程10km以上
高度3000ftの雲はほとんどない
高度5000ftの千切れ雲あり

METAR: RJTI 182330Z 05004KT 340V140 9999 FEW030 BKN050 03/M09 Q1022

時間: 09:00 (00:00 UTC)


TAF: 見つかりません

4,000以上の空港の気象観測と天気予報(METAR報とTAF報)

利用可能な観測所は地図上に黄色い丸と赤い丸で示す。

丸の上にカーソルを重ねると観測所名を参照できる。

次にクリックすると気象観測と天気予報を参照できる。

マップの切り替え:黒色「×」印の緑ボタンをクリックして拡大、「-」印の緑ボタンをクリックして縮小、緑色の三角印をクリックして隣りの地図に切り替え


METAR-TAF: